Time;durP1;ratioP1;P1;durP2;ratioP2;P2;SDS_P1;SDS_P2;PMS_P1;PMS_P2;Temp;Humidity;BMP_temperature;BMP_pressure;BME280_temperature;BME280_humidity;BME280_pressure;Samples;Min_cycle;Max_cycle;Signal;HPM_P1;HPM_P2
2022/11/03 00:01:09;;;;;;;7.37;3.77;;;9.30;99.90;;;;;;5060426;28;20180;-75
2022/11/03 00:03:35;;;;;;;7.00;3.70;;;9.30;99.90;;;;;;5074319;28;20734;-76
2022/11/03 00:06:04;;;;;;;7.63;4.00;;;9.30;99.90;;;;;;5079590;28;20282;-76
2022/11/03 00:08:35;;;;;;;11.33;3.83;;;9.20;99.90;;;;;;5075306;28;20215;-76
2022/11/03 00:11:05;;;;;;;9.53;4.00;;;9.10;99.90;;;;;;5053300;28;20184;-75
2022/11/03 00:13:31;;;;;;;11.27;3.97;;;9.20;99.90;;;;;;5084171;28;20552;-74
2022/11/03 00:15:57;;;;;;;8.50;3.93;;;9.20;99.90;;;;;;5079460;28;20221;-76
2022/11/03 00:18:22;;;;;;;10.23;3.77;;;9.20;99.90;;;;;;5080806;28;20289;-75
2022/11/03 00:20:58;;;;;;;7.30;3.43;;;9.10;99.90;;;;;;5081984;28;20233;-76
2022/11/03 00:23:26;;;;;;;13.87;3.77;;;9.10;99.90;;;;;;5082628;28;20213;-78
2022/11/03 00:25:51;;;;;;;10.03;3.87;;;9.10;99.90;;;;;;5067978;28;20202;-78
2022/11/03 00:28:17;;;;;;;11.83;4.30;;;9.00;99.90;;;;;;5052083;28;20224;-74
2022/11/03 00:30:42;;;;;;;7.60;3.80;;;9.00;99.90;;;;;;5064268;28;20276;-79
2022/11/03 00:33:08;;;;;;;8.57;4.03;;;9.00;99.90;;;;;;5062442;28;20219;-74
2022/11/03 00:35:33;;;;;;;10.40;4.10;;;9.00;99.90;;;;;;5072251;28;20215;-76
2022/11/03 00:37:59;;;;;;;7.77;3.70;;;9.00;99.90;;;;;;5080269;28;20195;-76
2022/11/03 00:40:24;;;;;;;12.20;4.00;;;9.00;99.90;;;;;;5083248;28;20645;-73
2022/11/03 00:42:50;;;;;;;11.43;3.83;;;9.00;99.90;;;;;;5071604;28;20232;-76
2022/11/03 00:45:16;;;;;;;10.57;3.97;;;9.00;99.90;;;;;;5073372;28;20210;-76
2022/11/03 00:48:28;;;;;;;11.27;3.77;;;9.00;99.90;;;;;;5074246;28;20217;-75
2022/11/03 00:50:26;;;;;;;7.87;3.27;;;9.00;99.90;;;;;;5077800;28;20768;-74
2022/11/03 00:52:52;;;;;;;8.80;3.60;;;9.00;99.90;;;;;;5065852;28;20171;-73
2022/11/03 00:55:18;;;;;;;11.20;4.67;;;9.00;99.90;;;;;;5073868;28;20203;-74
2022/11/03 00:57:44;;;;;;;9.23;3.83;;;9.10;99.90;;;;;;5077176;28;20229;-73
2022/11/03 01:00:10;;;;;;;9.60;3.77;;;9.10;99.90;;;;;;5056665;28;20811;-77
2022/11/03 01:02:36;;;;;;;9.40;4.20;;;9.00;99.90;;;;;;5060430;28;20214;-77
2022/11/03 01:07:46;;;;;;;9.33;4.23;;;9.00;99.90;;;;;;5080068;28;20647;-76
2022/11/03 01:10:11;;;;;;;11.80;3.50;;;8.90;99.90;;;;;;5066695;28;20171;-73
2022/11/03 01:12:37;;;;;;;7.83;3.87;;;8.90;99.90;;;;;;5082434;28;20202;-77
2022/11/03 01:15:02;;;;;;;7.87;3.87;;;8.90;99.90;;;;;;5060241;28;20274;-75
2022/11/03 01:17:28;;;;;;;10.00;3.60;;;8.90;99.90;;;;;;5074791;28;20208;-75
2022/11/03 01:19:54;;;;;;;13.17;3.33;;;8.90;99.90;;;;;;5069261;28;20313;-74
2022/11/03 01:22:21;;;;;;;10.07;3.33;;;8.80;99.90;;;;;;5075987;28;20172;-74
2022/11/03 01:24:46;;;;;;;8.37;4.00;;;8.90;99.90;;;;;;5073972;28;20218;-74
2022/11/03 01:27:17;;;;;;;12.60;3.67;;;8.80;99.90;;;;;;5071904;28;20317;-76
2022/11/03 01:29:43;;;;;;;8.67;4.03;;;8.80;99.90;;;;;;5070452;28;20854;-75
2022/11/03 01:32:09;;;;;;;11.07;4.23;;;8.70;99.90;;;;;;5075978;28;20212;-76
2022/11/03 01:34:35;;;;;;;7.63;3.13;;;8.70;99.90;;;;;;5068324;28;20172;-76
2022/11/03 01:37:01;;;;;;;14.00;3.73;;;8.70;99.90;;;;;;5060462;28;20208;-75
2022/11/03 01:39:26;;;;;;;6.63;3.13;;;8.60;99.90;;;;;;5061110;28;20214;-75
2022/11/03 01:41:52;;;;;;;9.17;3.27;;;8.60;99.90;;;;;;5078703;28;20206;-75
2022/11/03 01:44:18;;;;;;;8.10;3.30;;;8.50;99.90;;;;;;5065902;28;20226;-75
2022/11/03 01:46:48;;;;;;;9.40;3.33;;;8.50;99.90;;;;;;5068319;28;20182;-74
2022/11/03 01:49:21;;;;;;;6.23;3.00;;;8.50;99.90;;;;;;5081072;28;20210;-73
2022/11/03 01:51:53;;;;;;;7.33;3.13;;;8.50;99.90;;;;;;5069429;28;20206;-76
2022/11/03 01:54:21;;;;;;;10.43;3.33;;;8.40;99.90;;;;;;5057901;28;20215;-76
2022/11/03 01:56:50;;;;;;;6.67;3.60;;;8.40;99.90;;;;;;5063211;28;20215;-75
2022/11/03 01:59:17;;;;;;;9.00;3.37;;;8.50;99.90;;;;;;5067234;28;20216;-74
2022/11/03 02:01:44;;;;;;;8.17;2.87;;;8.40;99.90;;;;;;5064850;28;20174;-75
2022/11/03 02:04:16;;;;;;;10.03;3.47;;;8.40;99.90;;;;;;5076292;28;20236;-77
2022/11/03 02:06:42;;;;;;;6.23;2.67;;;8.40;99.90;;;;;;5075071;28;20619;-75
2022/11/03 02:09:09;;;;;;;8.87;2.50;;;8.40;99.90;;;;;;5057602;28;20359;-75
2022/11/03 02:14:20;;;;;;;12.83;3.07;;;8.20;99.90;;;;;;5078841;28;20259;-75
2022/11/03 02:16:53;;;;;;;6.77;3.07;;;8.20;99.90;;;;;;5076495;28;20238;-74
2022/11/03 02:19:46;;;;;;;8.60;2.53;;;8.10;99.90;;;;;;5077170;28;20365;-75
2022/11/03 02:22:47;;;;;;;6.70;2.87;;;8.20;99.90;;;;;;5062544;28;20743;-74
2022/11/03 02:25:36;;;;;;;9.60;3.07;;;8.20;99.90;;;;;;5074449;28;20211;-73
2022/11/03 02:28:03;;;;;;;9.63;2.67;;;8.20;99.90;;;;;;5056052;28;20219;-76
2022/11/03 02:30:36;;;;;;;9.00;3.10;;;8.20;99.90;;;;;;5080480;28;20213;-75
2022/11/03 02:33:21;;;;;;;10.30;2.87;;;8.20;99.90;;;;;;5076702;28;20256;-75
2022/11/03 02:35:52;;;;;;;4.77;2.17;;;8.10;99.90;;;;;;5061689;28;20719;-74
2022/11/03 02:38:21;;;;;;;10.53;2.73;;;8.20;99.90;;;;;;5061575;28;20230;-76
2022/11/03 02:40:52;;;;;;;10.20;2.93;;;8.20;99.90;;;;;;5079108;28;20559;-76
2022/11/03 02:43:19;;;;;;;7.30;2.73;;;8.20;99.90;;;;;;5053473;28;20259;-75
2022/11/03 02:45:48;;;;;;;9.40;3.10;;;8.20;99.90;;;;;;5064608;28;20578;-75
2022/11/03 02:48:15;;;;;;;7.53;2.80;;;8.20;99.90;;;;;;5083750;28;20226;-72
2022/11/03 02:50:41;;;;;;;6.73;2.87;;;8.10;99.90;;;;;;5083151;28;20229;-75
2022/11/03 02:53:08;;;;;;;8.57;3.30;;;8.10;99.90;;;;;;5069355;28;20250;-75
2022/11/03 02:55:50;;;;;;;11.10;3.20;;;8.10;99.90;;;;;;5086131;28;20255;-75
2022/11/03 02:58:18;;;;;;;9.53;2.73;;;8.10;99.90;;;;;;5084602;28;20221;-76
2022/11/03 03:01:13;;;;;;;9.17;3.33;;;8.10;99.90;;;;;;5068903;28;20656;-76
2022/11/03 03:03:49;;;;;;;7.67;2.90;;;8.10;99.90;;;;;;5067358;28;20292;-74
2022/11/03 03:06:25;;;;;;;4.43;2.80;;;8.00;99.90;;;;;;5083567;28;20209;-75
2022/11/03 03:09:04;;;;;;;7.90;3.20;;;8.00;99.90;;;;;;5072976;28;20714;-76
2022/11/03 03:11:37;;;;;;;10.73;2.77;;;8.00;99.90;;;;;;5058236;28;20208;-76
2022/11/03 03:14:24;;;;;;;7.30;2.90;;;7.90;99.90;;;;;;5079655;28;20225;-76
2022/11/03 03:16:53;;;;;;;6.17;2.57;;;8.00;99.90;;;;;;5078619;28;20193;-75
2022/11/03 03:19:42;;;;;;;10.23;3.27;;;8.00;99.90;;;;;;5064242;28;20177;-76
2022/11/03 03:22:27;;;;;;;12.43;3.17;;;8.00;99.90;;;;;;5061958;28;20215;-75
2022/11/03 03:24:59;;;;;;;6.50;2.90;;;8.00;99.90;;;;;;5079224;28;20586;-76
2022/11/03 03:27:28;;;;;;;9.27;2.90;;;8.00;99.90;;;;;;5071252;28;20207;-76
2022/11/03 03:29:59;;;;;;;5.77;2.47;;;8.00;99.90;;;;;;5082414;28;20207;-76
2022/11/03 03:32:27;;;;;;;7.73;2.73;;;8.00;99.90;;;;;;5083952;28;20593;-76
2022/11/03 03:34:54;;;;;;;8.00;2.90;;;8.10;99.90;;;;;;5069541;28;20175;-76
2022/11/03 03:37:23;;;;;;;6.50;2.70;;;8.10;99.90;;;;;;5079926;28;20274;-76
2022/11/03 03:39:54;;;;;;;7.70;3.07;;;8.00;99.90;;;;;;5082085;28;20225;-75
2022/11/03 03:42:23;;;;;;;7.73;2.70;;;8.00;99.90;;;;;;5081059;28;20234;-77
2022/11/03 03:44:50;;;;;;;9.00;2.40;;;8.00;99.90;;;;;;5066728;28;20215;-74
2022/11/03 03:47:24;;;;;;;6.40;2.43;;;8.00;99.90;;;;;;5076309;28;20221;-73
2022/11/03 03:49:50;;;;;;;5.87;2.63;;;8.00;99.90;;;;;;5079353;28;20214;-74
2022/11/03 03:52:16;;;;;;;10.00;3.30;;;8.00;99.90;;;;;;5079768;28;20210;-74
2022/11/03 03:54:41;;;;;;;6.77;2.97;;;8.00;99.90;;;;;;5074707;28;20210;-75
2022/11/03 03:57:14;;;;;;;8.30;3.30;;;8.10;99.90;;;;;;5077157;28;20762;-75
2022/11/03 03:59:40;;;;;;;9.63;3.20;;;8.00;99.90;;;;;;5081839;28;20218;-72
2022/11/03 04:02:06;;;;;;;10.63;3.30;;;8.00;99.90;;;;;;5075314;28;20561;-71
2022/11/03 04:04:32;;;;;;;7.73;2.53;;;7.90;99.90;;;;;;5081368;28;20648;-72
2022/11/03 04:09:42;;;;;;;8.70;2.73;;;7.90;99.90;;;;;;5076099;28;20221;-72
2022/11/03 04:23:10;;;;;;;6.43;2.83;;;8.00;99.90;;;;;;5077714;28;20245;-72
2022/11/03 04:25:36;;;;;;;5.37;2.90;;;8.00;99.90;;;;;;5059118;28;20231;-72
2022/11/03 04:28:09;;;;;;;11.93;3.07;;;8.00;99.90;;;;;;5079194;28;20594;-72
2022/11/03 04:30:35;;;;;;;5.87;2.80;;;8.00;99.90;;;;;;5076694;28;20263;-72
2022/11/03 04:33:00;;;;;;;6.53;3.17;;;8.00;99.90;;;;;;5059460;28;20678;-72
2022/11/03 04:35:27;;;;;;;9.17;3.00;;;7.90;99.90;;;;;;5074921;28;20318;-72
2022/11/03 04:38:23;;;;;;;9.27;2.93;;;7.90;99.90;;;;;;5073807;28;20581;-72
2022/11/03 04:40:54;;;;;;;10.13;3.00;;;7.90;99.90;;;;;;5058437;28;20292;-73
2022/11/03 04:43:23;;;;;;;9.67;2.93;;;7.90;99.90;;;;;;5055478;28;20176;-75
2022/11/03 04:45:49;;;;;;;5.87;2.83;;;7.80;99.90;;;;;;5064788;28;20681;-73
2022/11/03 04:48:20;;;;;;;9.53;3.17;;;7.90;99.90;;;;;;5074415;28;20211;-73
2022/11/03 04:50:48;;;;;;;7.30;2.77;;;7.90;99.90;;;;;;5079639;28;20751;-73
2022/11/03 04:53:16;;;;;;;6.83;2.77;;;7.80;99.90;;;;;;5074078;28;20207;-72
2022/11/03 04:55:43;;;;;;;6.67;2.70;;;7.90;99.90;;;;;;5079152;28;20218;-73
2022/11/03 04:58:28;;;;;;;10.70;2.97;;;7.90;99.90;;;;;;5064212;28;20223;-73
2022/11/03 05:00:57;;;;;;;5.33;3.07;;;7.80;99.90;;;;;;5074015;28;20216;-73
2022/11/03 05:03:26;;;;;;;8.93;3.30;;;7.80;99.90;;;;;;5079820;28;20206;-73
2022/11/03 05:05:51;;;;;;;6.17;2.53;;;7.80;99.90;;;;;;5059563;28;20294;-72
2022/11/03 05:08:18;;;;;;;9.03;3.47;;;7.70;99.90;;;;;;5074892;28;20217;-73
2022/11/03 05:10:45;;;;;;;7.67;3.10;;;7.70;99.90;;;;;;5078464;28;20189;-72
2022/11/03 05:13:30;;;;;;;7.97;3.17;;;7.70;99.90;;;;;;5075464;28;20641;-75
2022/11/03 05:16:03;;;;;;;6.70;2.77;;;7.80;99.90;;;;;;5078363;28;20288;-73
2022/11/03 05:18:32;;;;;;;6.83;3.90;;;7.70;99.90;;;;;;5074867;28;20211;-74
2022/11/03 05:21:08;;;;;;;6.90;3.43;;;7.70;99.90;;;;;;5078089;28;20215;-73
2022/11/03 05:23:39;;;;;;;10.03;3.60;;;7.70;99.90;;;;;;5076124;28;20720;-73
2022/11/03 05:26:11;;;;;;;10.47;4.77;;;7.60;99.90;;;;;;5075632;28;20853;-72
2022/11/03 05:28:49;;;;;;;9.23;3.23;;;7.60;99.90;;;;;;5078521;28;20679;-72
2022/11/03 05:31:22;;;;;;;8.90;3.30;;;7.60;99.90;;;;;;5076842;28;20681;-72
2022/11/03 05:33:48;;;;;;;7.63;3.60;;;7.60;99.90;;;;;;5078796;28;20206;-76
2022/11/03 05:36:20;;;;;;;13.03;4.37;;;7.50;99.90;;;;;;5076420;28;20724;-73
2022/11/03 05:38:45;;;;;;;9.20;4.10;;;7.50;99.90;;;;;;5078662;28;20664;-72
2022/11/03 05:41:17;;;;;;;12.30;4.27;;;7.50;99.90;;;;;;5059905;28;20302;-72
2022/11/03 05:43:42;;;;;;;7.10;3.40;;;7.40;99.90;;;;;;5074502;28;20627;-73
2022/11/03 05:46:09;;;;;;;8.77;4.37;;;7.40;99.90;;;;;;5074323;28;20249;-72
2022/11/03 05:48:42;;;;;;;11.07;4.07;;;7.30;99.90;;;;;;5078785;28;20237;-72
2022/11/03 05:51:21;;;;;;;9.07;3.40;;;7.30;99.90;;;;;;5075992;28;20206;-72
2022/11/03 05:53:51;;;;;;;10.23;4.10;;;7.20;99.90;;;;;;5073845;28;20351;-72
2022/11/03 05:56:20;;;;;;;9.90;4.30;;;7.30;99.90;;;;;;5071950;28;20222;-72
2022/11/03 05:58:48;;;;;;;10.67;4.47;;;7.20;99.90;;;;;;5078395;28;20219;-73
2022/11/03 06:01:29;;;;;;;5.97;3.80;;;7.30;99.90;;;;;;5066461;28;20176;-73
2022/11/03 06:03:58;;;;;;;7.77;4.30;;;7.30;99.90;;;;;;5060259;28;20724;-71
2022/11/03 06:06:28;;;;;;;10.57;4.33;;;7.40;99.90;;;;;;5080163;28;20214;-72
2022/11/03 06:08:56;;;;;;;8.67;4.33;;;7.40;99.90;;;;;;5066647;28;20218;-74
2022/11/03 06:11:31;;;;;;;11.80;5.33;;;7.40;99.90;;;;;;5057699;28;20211;-72
2022/11/03 06:13:58;;;;;;;13.47;4.40;;;7.40;99.90;;;;;;5063427;28;20218;-73
2022/11/03 06:16:51;;;;;;;8.70;4.03;;;7.40;99.90;;;;;;5081045;28;20213;-72
2022/11/03 06:19:25;;;;;;;10.20;4.63;;;7.40;99.90;;;;;;5062761;28;20290;-74
2022/11/03 06:21:53;;;;;;;14.40;4.70;;;7.40;99.90;;;;;;5058036;28;20218;-72
2022/11/03 06:24:24;;;;;;;10.20;5.07;;;7.40;99.90;;;;;;5079592;28;20645;-74
2022/11/03 06:26:51;;;;;;;11.33;4.77;;;7.40;99.90;;;;;;5059116;28;20243;-73
2022/11/03 06:29:18;;;;;;;15.37;4.80;;;7.40;99.90;;;;;;5067006;28;20225;-72
2022/11/03 06:31:46;;;;;;;13.10;4.60;;;7.50;99.90;;;;;;5076483;28;20265;-73
2022/11/03 06:34:40;;;;;;;9.67;4.37;;;7.50;99.90;;;;;;5057719;28;20210;-73
2022/11/03 06:37:21;;;;;;;8.27;4.07;;;7.40;99.90;;;;;;5063990;28;20221;-76
2022/11/03 06:39:48;;;;;;;17.00;4.40;;;7.40;99.90;;;;;;5066713;28;20296;-73
2022/11/03 06:42:18;;;;;;;8.20;4.53;;;7.40;99.90;;;;;;5077652;28;20206;-72
2022/11/03 06:44:47;;;;;;;10.10;4.30;;;7.60;99.90;;;;;;5063851;28;20206;-78
2022/11/03 06:47:22;;;;;;;14.67;4.50;;;7.40;99.90;;;;;;5078540;28;20241;-73
2022/11/03 06:49:49;;;;;;;12.97;4.67;;;7.50;99.90;;;;;;5078803;28;20178;-71
2022/11/03 06:52:33;;;;;;;7.13;4.10;;;7.50;99.90;;;;;;5065524;28;20195;-70
2022/11/03 06:55:26;;;;;;;12.87;4.30;;;7.60;99.90;;;;;;5065350;28;20298;-72
2022/11/03 06:57:59;;;;;;;7.33;3.87;;;8.20;99.90;;;;;;5065052;28;20240;-71
2022/11/03 07:00:27;;;;;;;9.63;4.47;;;8.00;99.90;;;;;;5074085;28;20211;-72
2022/11/03 07:03:13;;;;;;;8.83;4.23;;;8.10;99.90;;;;;;5072311;28;20690;-71
2022/11/03 07:05:39;;;;;;;9.30;4.03;;;8.20;99.90;;;;;;5063286;28;20699;-72
2022/11/03 07:08:33;;;;;;;9.97;4.23;;;8.90;99.90;;;;;;5075944;28;20352;-72
2022/11/03 07:11:16;;;;;;;10.23;3.90;;;9.90;99.90;;;;;;5036865;28;20238;-72
2022/11/03 07:13:42;;;;;;;17.23;4.47;;;11.10;99.90;;;;;;5073729;28;20577;-72
2022/11/03 07:16:16;;;;;;;12.37;4.17;;;12.10;99.90;;;;;;5060985;28;20199;-72
2022/11/03 07:18:42;;;;;;;9.77;4.27;;;12.60;99.90;;;;;;5065675;28;20232;-72
2022/11/03 07:21:35;;;;;;;6.73;3.33;;;13.20;99.90;;;;;;5056819;28;20210;-71
2022/11/03 07:24:13;;;;;;;11.27;4.57;;;13.60;99.90;;;;;;5065068;28;20219;-73
2022/11/03 07:26:38;;;;;;;10.17;3.40;;;13.90;99.90;;;;;;5070487;28;20294;-72
2022/11/03 07:29:04;;;;;;;6.83;3.40;;;13.80;99.90;;;;;;5071770;28;20294;-72
2022/11/03 07:31:30;;;;;;;7.23;3.00;;;13.30;99.90;;;;;;5082619;28;20227;-74
2022/11/03 07:33:57;;;;;;;10.17;3.37;;;13.10;99.90;;;;;;5062331;28;20219;-72
2022/11/03 07:36:26;;;;;;;11.43;4.07;;;13.60;99.90;;;;;;5058327;28;20326;-72
2022/11/03 07:38:55;;;;;;;11.02;3.60;;;13.50;99.90;;;;;;5057481;28;20265;-76
2022/11/03 07:41:25;;;;;;;9.07;3.75;;;13.60;99.90;;;;;;5083557;28;20715;-73
2022/11/03 07:43:57;;;;;;;11.07;3.60;;;14.20;99.90;;;;;;5074372;28;20201;-74
2022/11/03 07:46:24;;;;;;;9.32;3.30;;;14.30;99.90;;;;;;5069448;28;20233;-75
2022/11/03 07:48:52;;;;;;;8.05;3.25;;;14.50;99.90;;;;;;5071814;28;20233;-73
2022/11/03 07:51:30;;;;;;;5.28;3.03;;;14.50;99.90;;;;;;5062383;28;20252;-73
2022/11/03 07:54:09;;;;;;;10.93;3.35;;;13.40;99.90;;;;;;5066600;28;20245;-74
2022/11/03 07:56:41;;;;;;;8.38;2.72;;;12.80;99.90;;;;;;5079688;28;20314;-74
2022/11/03 07:59:12;;;;;;;9.07;3.20;;;12.50;99.90;;;;;;5081110;28;20630;-73
2022/11/03 08:01:44;;;;;;;10.70;3.50;;;12.30;99.90;;;;;;5054152;28;20187;-73
2022/11/03 08:04:16;;;;;;;9.87;3.43;;;12.10;99.90;;;;;;5075975;28;20231;-76
2022/11/03 08:06:41;;;;;;;8.47;3.47;;;12.00;99.90;;;;;;5082412;28;20202;-72
2022/11/03 08:09:07;;;;;;;8.43;3.10;;;11.70;99.90;;;;;;5056307;28;20206;-73
2022/11/03 08:11:32;;;;;;;12.03;4.23;;;11.80;99.90;;;;;;5073432;28;20279;-75
2022/11/03 08:13:58;;;;;;;7.13;3.37;;;11.60;99.90;;;;;;5076286;28;20175;-72
2022/11/03 08:16:23;;;;;;;12.90;3.80;;;11.40;99.90;;;;;;5065642;28;20293;-73
2022/11/03 08:18:49;;;;;;;7.70;3.73;;;11.40;99.90;;;;;;5067906;28;20271;-73
2022/11/03 08:21:16;;;;;;;9.80;3.63;;;11.40;99.90;;;;;;5080944;28;20202;-74
2022/11/03 08:23:41;;;;;;;9.73;3.70;;;11.70;99.90;;;;;;5078969;28;20213;-73
2022/11/03 08:26:08;;;;;;;9.40;3.90;;;11.50;99.90;;;;;;5057951;28;20749;-74
2022/11/03 08:28:34;;;;;;;8.77;3.47;;;11.40;99.90;;;;;;5079317;28;20202;-75
2022/11/03 08:31:03;;;;;;;12.27;4.30;;;11.70;99.90;;;;;;5058444;28;20258;-74
2022/11/03 08:33:33;;;;;;;9.07;3.60;;;11.90;99.90;;;;;;5059110;28;20219;-73
2022/11/03 08:36:00;;;;;;;11.00;3.93;;;11.90;99.90;;;;;;5055262;28;20230;-73
2022/11/03 08:38:25;;;;;;;12.33;3.70;;;11.90;99.90;;;;;;5077942;28;20218;-73
2022/11/03 08:40:52;;;;;;;11.83;3.80;;;11.70;99.90;;;;;;5074461;28;20179;-73
2022/11/03 08:43:17;;;;;;;10.77;4.13;;;11.70;99.90;;;;;;5076000;28;20197;-73
2022/11/03 08:45:43;;;;;;;14.03;4.43;;;11.70;99.90;;;;;;5055541;28;20242;-73
2022/11/03 08:48:08;;;;;;;8.00;3.63;;;11.80;99.90;;;;;;5053963;28;20246;-74
2022/11/03 08:50:34;;;;;;;11.60;4.10;;;11.80;99.90;;;;;;5074707;28;20217;-73
2022/11/03 08:53:00;;;;;;;10.07;3.40;;;12.20;99.90;;;;;;5079687;28;20186;-73
2022/11/03 08:55:25;;;;;;;11.53;3.80;;;12.10;99.90;;;;;;5079988;28;20194;-73
2022/11/03 08:57:51;;;;;;;5.30;3.17;;;11.90;99.90;;;;;;5076922;28;20218;-72
2022/11/03 09:00:16;;;;;;;11.40;3.83;;;12.20;99.90;;;;;;5078989;28;20199;-73
2022/11/03 09:02:45;;;;;;;11.83;3.53;;;12.30;99.90;;;;;;5083332;28;20213;-73
2022/11/03 09:05:12;;;;;;;8.53;3.10;;;12.20;99.90;;;;;;5078199;28;20245;-73
2022/11/03 09:07:38;;;;;;;8.73;3.37;;;12.30;99.90;;;;;;5082188;28;20213;-73
2022/11/03 09:10:06;;;;;;;6.47;2.90;;;12.20;99.90;;;;;;5064617;28;20580;-73
2022/11/03 09:12:32;;;;;;;5.17;2.90;;;12.40;99.90;;;;;;5063641;28;20218;-74
2022/11/03 09:14:57;;;;;;;7.90;3.50;;;12.20;99.90;;;;;;5077999;28;20214;-76
2022/11/03 09:17:23;;;;;;;5.67;2.77;;;12.20;99.90;;;;;;5070743;28;20254;-74
2022/11/03 09:19:48;;;;;;;7.07;2.50;;;12.10;99.90;;;;;;5074365;28;20660;-74
2022/11/03 09:22:14;;;;;;;11.77;3.13;;;12.10;99.90;;;;;;5067142;28;20226;-73
2022/11/03 09:24:39;;;;;;;7.00;2.70;;;12.30;99.90;;;;;;5076630;28;20718;-74
2022/11/03 09:27:05;;;;;;;6.17;2.77;;;12.30;99.90;;;;;;5062525;28;20222;-72
2022/11/03 09:29:30;;;;;;;9.33;2.73;;;12.40;99.90;;;;;;5074589;28;20696;-76
2022/11/03 09:31:56;;;;;;;7.37;2.57;;;12.30;99.90;;;;;;5074474;28;20241;-76
2022/11/03 09:34:21;;;;;;;7.43;3.10;;;12.30;99.90;;;;;;5074100;28;20183;-75
2022/11/03 09:36:47;;;;;;;6.57;3.23;;;12.30;99.90;;;;;;5070711;28;20218;-75
2022/11/03 09:39:12;;;;;;;11.77;3.23;;;12.60;99.90;;;;;;5057753;28;20575;-75
2022/11/03 09:41:38;;;;;;;6.50;2.90;;;13.00;99.90;;;;;;5061925;28;20209;-77
2022/11/03 09:44:04;;;;;;;12.27;2.73;;;13.10;99.90;;;;;;5072966;28;20612;-76
2022/11/03 09:46:30;;;;;;;9.07;3.27;;;13.10;99.90;;;;;;5081910;28;20209;-73
2022/11/03 09:48:57;;;;;;;9.03;2.80;;;12.80;99.90;;;;;;5076625;28;20306;-74
2022/11/03 09:51:26;;;;;;;8.20;2.50;;;12.60;99.90;;;;;;5073845;28;20557;-73
2022/11/03 09:53:51;;;;;;;10.77;3.27;;;12.90;99.90;;;;;;5074198;28;20289;-72
2022/11/03 09:56:21;;;;;;;7.27;2.10;;;13.20;99.90;;;;;;5057903;28;20323;-72
2022/11/03 09:58:46;;;;;;;8.93;2.93;;;13.20;99.90;;;;;;5076022;28;20226;-72
2022/11/03 10:01:12;;;;;;;7.43;2.77;;;13.30;99.90;;;;;;5079969;28;20252;-72
2022/11/03 10:03:40;;;;;;;5.80;2.60;;;13.20;99.90;;;;;;5079106;28;20268;-73
2022/11/03 10:06:06;;;;;;;6.93;2.30;;;13.20;99.90;;;;;;5070610;28;20226;-72
2022/11/03 10:08:34;;;;;;;6.90;2.37;;;13.10;99.90;;;;;;5072420;28;20215;-71
2022/11/03 10:11:00;;;;;;;5.47;2.23;;;13.20;99.90;;;;;;5056775;28;20555;-71
2022/11/03 10:13:33;;;;;;;6.20;2.63;;;13.10;99.90;;;;;;5069763;28;20189;-74
2022/11/03 10:16:00;;;;;;;7.63;2.37;;;13.10;99.90;;;;;;5074361;28;20352;-73
2022/11/03 10:18:27;;;;;;;6.43;2.40;;;13.00;99.90;;;;;;5069641;28;20218;-73
2022/11/03 10:20:53;;;;;;;9.37;2.50;;;13.10;99.90;;;;;;5079623;28;20685;-73
2022/11/03 10:23:18;;;;;;;10.43;2.70;;;13.10;99.90;;;;;;5080440;28;20207;-72
2022/11/03 10:25:45;;;;;;;5.87;2.40;;;13.20;99.90;;;;;;5078387;28;20614;-72
2022/11/03 10:28:16;;;;;;;4.33;2.43;;;13.10;99.90;;;;;;5054747;28;20682;-71
2022/11/03 10:30:52;;;;;;;9.10;2.47;;;13.00;99.90;;;;;;5064922;28;20713;-77
2022/11/03 10:33:35;;;;;;;7.90;2.17;;;13.20;99.90;;;;;;5071627;28;20205;-75
2022/11/03 10:36:03;;;;;;;10.70;3.00;;;13.20;99.90;;;;;;5060947;28;20728;-73
2022/11/03 10:38:32;;;;;;;8.63;2.17;;;13.10;99.90;;;;;;5065878;28;20211;-74
2022/11/03 10:41:10;;;;;;;9.23;2.93;;;13.10;99.90;;;;;;5074752;28;20206;-72
2022/11/03 10:43:36;;;;;;;9.30;2.77;;;13.10;99.90;;;;;;5060397;28;20182;-74
2022/11/03 10:46:11;;;;;;;4.77;2.23;;;13.00;99.90;;;;;;5071257;28;20746;-72
2022/11/03 10:48:37;;;;;;;5.70;2.50;;;13.00;99.90;;;;;;5062621;28;20217;-74
2022/11/03 10:51:03;;;;;;;4.17;2.30;;;13.10;99.90;;;;;;5067809;28;20211;-75
2022/11/03 10:53:29;;;;;;;4.70;2.23;;;13.20;99.90;;;;;;5064833;28;20257;-77
2022/11/03 10:55:56;;;;;;;8.07;2.43;;;13.20;99.90;;;;;;5069372;28;20207;-74
2022/11/03 10:58:22;;;;;;;9.70;2.30;;;13.20;99.90;;;;;;5076815;28;20676;-72
2022/11/03 11:00:47;;;;;;;7.37;2.53;;;13.30;99.90;;;;;;5069821;28;20207;-72
2022/11/03 11:03:13;;;;;;;5.30;2.30;;;13.10;99.90;;;;;;5050683;28;20734;-71
2022/11/03 11:05:46;;;;;;;8.20;2.37;;;13.10;99.90;;;;;;5077341;28;20583;-72
2022/11/03 11:08:16;;;;;;;6.70;2.53;;;13.10;99.90;;;;;;5077810;28;20221;-76
2022/11/03 11:10:44;;;;;;;8.77;2.87;;;13.10;99.90;;;;;;5070493;28;20201;-74
2022/11/03 11:13:20;;;;;;;5.50;1.93;;;13.20;99.90;;;;;;5065020;28;20171;-73
2022/11/03 11:15:53;;;;;;;8.33;2.50;;;13.20;99.90;;;;;;5062048;28;20217;-74
2022/11/03 11:18:28;;;;;;;7.47;2.17;;;13.30;99.90;;;;;;5050199;28;20213;-74
2022/11/03 11:21:21;;;;;;;5.17;2.30;;;13.40;99.90;;;;;;5058218;28;20286;-74
2022/11/03 11:23:47;;;;;;;5.63;2.17;;;13.30;99.90;;;;;;5071906;28;20206;-74
2022/11/03 11:26:28;;;;;;;10.27;2.40;;;13.10;99.90;;;;;;5056970;28;20238;-75
2022/11/03 11:29:09;;;;;;;5.88;2.10;;;13.20;99.90;;;;;;5057263;28;20203;-74
2022/11/03 11:32:15;;;;;;;11.97;2.67;;;13.30;99.90;;;;;;5060391;28;20177;-74
2022/11/03 11:34:40;;;;;;;7.57;2.63;;;13.20;99.90;;;;;;5076846;28;20201;-74
2022/11/03 11:37:06;;;;;;;4.60;2.00;;;13.30;99.90;;;;;;5081969;28;20221;-73
2022/11/03 11:39:33;;;;;;;7.87;2.50;;;13.30;99.90;;;;;;5081626;28;20222;-74
2022/11/03 11:42:18;;;;;;;5.72;2.65;;;13.30;99.90;;;;;;5065200;28;20199;-75
2022/11/03 11:44:52;;;;;;;7.70;2.77;;;13.40;99.90;;;;;;5069033;28;20596;-74
2022/11/03 11:47:32;;;;;;;9.55;3.13;;;13.30;99.90;;;;;;5082697;28;20206;-75
2022/11/03 11:50:04;;;;;;;6.27;2.50;;;13.40;99.90;;;;;;5080668;28;20301;-74
2022/11/03 11:52:30;;;;;;;7.50;2.75;;;13.20;99.90;;;;;;5062607;28;20240;-74
2022/11/03 11:54:56;;;;;;;5.40;2.50;;;13.30;99.90;;;;;;5065252;28;20211;-75
2022/11/03 11:57:22;;;;;;;7.78;2.75;;;13.30;99.90;;;;;;5079825;28;20218;-75
2022/11/03 11:59:49;;;;;;;5.78;2.35;;;13.30;99.90;;;;;;5081233;28;20207;-74
2022/11/03 12:02:22;;;;;;;5.68;2.15;;;13.30;99.90;;;;;;5067806;28;20797;-74
2022/11/03 12:04:58;;;;;;;8.13;2.70;;;13.20;99.90;;;;;;5082270;28;20185;-75
2022/11/03 12:07:34;;;;;;;12.52;3.00;;;13.20;99.90;;;;;;5084449;28;20190;-75
2022/11/03 12:10:16;;;;;;;8.67;2.37;;;13.30;99.90;;;;;;5066823;28;20630;-73
2022/11/03 12:12:42;;;;;;;6.80;2.67;;;13.30;99.90;;;;;;5066455;28;20202;-74
2022/11/03 12:15:45;;;;;;;7.13;2.22;;;13.30;99.90;;;;;;5059794;28;20677;-75
2022/11/03 12:18:34;;;;;;;8.90;2.63;;;13.40;99.90;;;;;;5067086;28;20219;-74
2022/11/03 12:21:02;;;;;;;11.90;3.30;;;13.20;99.90;;;;;;5075591;28;20222;-74
2022/11/03 12:23:35;;;;;;;9.23;2.57;;;13.40;99.90;;;;;;5082527;28;20222;-75
2022/11/03 12:26:01;;;;;;;9.38;2.70;;;13.20;99.90;;;;;;5076499;28;20215;-74
2022/11/03 12:28:34;;;;;;;6.88;2.70;;;13.30;99.90;;;;;;5055834;28;20205;-74
2022/11/03 12:31:00;;;;;;;8.37;2.47;;;13.20;99.90;;;;;;5076585;28;20586;-75
2022/11/03 12:33:27;;;;;;;6.03;2.90;;;13.20;99.90;;;;;;5083581;28;20279;-74
2022/11/03 12:35:53;;;;;;;4.77;2.10;;;13.20;99.90;;;;;;5057507;28;20673;-74
2022/11/03 12:38:19;;;;;;;11.47;2.77;;;13.10;99.90;;;;;;5077572;28;20203;-74
2022/11/03 12:40:44;;;;;;;8.35;2.40;;;13.20;99.90;;;;;;5080451;28;20189;-75
2022/11/03 12:43:10;;;;;;;7.90;3.13;;;13.20;99.90;;;;;;5059457;28;20181;-74
2022/11/03 12:45:35;;;;;;;8.98;2.83;;;13.30;99.90;;;;;;5073227;28;20628;-75
2022/11/03 12:48:01;;;;;;;6.50;2.80;;;13.20;99.90;;;;;;5078730;28;20757;-72
2022/11/03 12:50:26;;;;;;;7.90;2.53;;;13.30;99.90;;;;;;5080603;28;20293;-75
2022/11/03 12:52:52;;;;;;;11.32;2.85;;;13.10;99.90;;;;;;5064713;28;20206;-76
2022/11/03 12:55:18;;;;;;;9.20;2.87;;;13.20;99.90;;;;;;5076702;28;20198;-76
2022/11/03 12:57:44;;;;;;;4.63;2.03;;;13.30;99.90;;;;;;5071906;28;20305;-79
2022/11/03 13:00:11;;;;;;;11.02;2.60;;;13.40;99.90;;;;;;5075405;28;20855;-77
2022/11/03 13:02:37;;;;;;;9.02;3.05;;;13.40;99.90;;;;;;5064264;28;20210;-78
2022/11/03 13:05:03;;;;;;;8.32;2.85;;;13.30;99.90;;;;;;5067110;28;20293;-75
2022/11/03 13:07:29;;;;;;;8.53;2.43;;;13.30;99.90;;;;;;5080353;28;20294;-74
2022/11/03 13:09:54;;;;;;;7.10;2.58;;;13.30;99.90;;;;;;5064844;28;20727;-74
2022/11/03 13:12:32;;;;;;;7.60;2.72;;;13.10;99.90;;;;;;5060289;28;20673;-73
2022/11/03 13:15:00;;;;;;;5.88;2.40;;;13.20;99.90;;;;;;5078053;28;20213;-73
2022/11/03 13:17:26;;;;;;;9.53;2.87;;;13.10;99.90;;;;;;5074472;28;20215;-74
2022/11/03 13:19:51;;;;;;;8.03;3.00;;;13.00;99.90;;;;;;5073169;28;20175;-75
2022/11/03 13:22:17;;;;;;;6.60;3.20;;;13.10;99.90;;;;;;5079215;28;20246;-74